createdAt,value
2023-02-11T00:00:57.833Z,28.90
2023-02-11T00:03:24.901Z,28.17
2023-02-11T00:06:02.545Z,26.45
2023-02-11T00:08:29.634Z,26.48
2023-02-11T00:10:57.889Z,26.77
2023-02-11T00:13:25.039Z,25.58
2023-02-11T00:15:52.287Z,28.35
2023-02-11T00:18:19.173Z,27.38
2023-02-11T00:20:46.480Z,28.98
2023-02-11T00:23:13.959Z,27.23
2023-02-11T00:25:45.472Z,29.92
2023-02-11T00:28:12.821Z,29.25
2023-02-11T00:30:39.883Z,30.48
2023-02-11T00:33:07.208Z,29.45
2023-02-11T00:35:33.954Z,30.27
2023-02-11T00:38:01.029Z,30.05
2023-02-11T00:40:27.876Z,28.90
2023-02-11T00:42:54.886Z,30.38
2023-02-11T00:45:22.030Z,29.25
2023-02-11T00:47:49.103Z,30.08
2023-02-11T00:50:15.802Z,30.27
2023-02-11T00:52:42.825Z,29.63
2023-02-11T00:55:09.964Z,29.75
2023-02-11T00:57:36.684Z,28.80
2023-02-11T01:00:05.560Z,27.80
2023-02-11T01:02:32.446Z,28.83
2023-02-11T01:05:00.414Z,29.85
2023-02-11T01:07:28.540Z,29.38
2023-02-11T01:09:55.403Z,28.67
2023-02-11T01:12:22.813Z,29.02
2023-02-11T01:14:49.751Z,28.95
2023-02-11T01:17:16.974Z,28.83
2023-02-11T01:19:44.226Z,27.33
2023-02-11T01:22:11.080Z,27.15
2023-02-11T01:24:38.201Z,26.85
2023-02-11T01:27:05.056Z,27.60
2023-02-11T01:29:32.171Z,27.35
2023-02-11T01:32:01.068Z,26.27
2023-02-11T01:34:31.117Z,26.05
2023-02-11T01:36:59.369Z,28.02
2023-02-11T01:39:26.941Z,27.65
2023-02-11T01:41:54.617Z,29.00
2023-02-11T01:44:27.909Z,28.33
2023-02-11T01:46:54.866Z,29.40
2023-02-11T01:49:30.492Z,30.02
2023-02-11T01:52:08.230Z,29.10
2023-02-11T01:55:01.762Z,28.35
2023-02-11T01:57:31.672Z,29.88
2023-02-11T02:00:21.772Z,29.38
2023-02-11T02:03:08.146Z,30.88
2023-02-11T02:06:08.851Z,30.15
2023-02-11T02:08:43.038Z,29.25
2023-02-11T02:13:36.455Z,27.27
2023-02-11T02:16:10.040Z,29.00
2023-02-11T02:19:00.193Z,28.95
2023-02-11T02:21:42.492Z,28.58
2023-02-11T02:24:31.929Z,29.15
2023-02-11T02:27:37.608Z,28.10
2023-02-11T02:30:53.691Z,28.35
2023-02-11T02:33:38.026Z,30.02
2023-02-11T02:36:33.898Z,30.55
2023-02-11T02:39:22.025Z,29.35
2023-02-11T02:41:49.315Z,29.88
2023-02-11T02:44:15.992Z,28.92
2023-02-11T02:46:42.783Z,29.75
2023-02-11T02:49:13.780Z,28.33
2023-02-11T02:52:07.431Z,29.25
2023-02-11T02:54:55.944Z,27.20
2023-02-11T02:57:39.571Z,27.48
2023-02-11T03:00:25.809Z,28.53
2023-02-11T03:03:22.907Z,28.23
2023-02-11T03:05:52.521Z,28.50
2023-02-11T03:08:34.573Z,27.40
2023-02-11T03:11:02.060Z,28.25
2023-02-11T03:13:34.051Z,27.92
2023-02-11T03:16:15.944Z,28.73
2023-02-11T03:18:46.579Z,28.27
2023-02-11T03:21:14.391Z,28.75
2023-02-11T03:23:45.214Z,28.63
2023-02-11T03:26:20.153Z,28.05
2023-02-11T03:29:25.933Z,27.13
2023-02-11T03:32:05.645Z,28.73
2023-02-11T03:34:42.194Z,28.15
2023-02-11T03:37:13.844Z,28.95
2023-02-11T03:39:49.312Z,28.42
2023-02-11T03:42:16.606Z,30.23
2023-02-11T03:45:00.227Z,29.05
2023-02-11T03:47:28.461Z,31.27
2023-02-11T03:49:55.869Z,30.75
2023-02-11T03:52:23.442Z,29.90
2023-02-11T03:54:54.129Z,30.67
2023-02-11T03:57:20.883Z,29.75
2023-02-11T03:59:56.666Z,28.02
2023-02-11T04:02:26.774Z,27.92
2023-02-11T04:04:53.664Z,26.50
2023-02-11T04:07:20.637Z,28.90
2023-02-11T04:09:47.422Z,26.23
2023-02-11T04:12:14.185Z,28.38
2023-02-11T04:14:40.975Z,28.52
2023-02-11T04:17:07.932Z,29.63
2023-02-11T04:19:34.689Z,28.15
2023-02-11T04:22:01.703Z,29.50
2023-02-11T04:24:28.472Z,29.73
2023-02-11T04:26:55.627Z,27.67
2023-02-11T04:29:22.269Z,29.60
2023-02-11T04:31:49.279Z,28.95
2023-02-11T04:34:16.131Z,28.08
2023-02-11T04:36:43.013Z,28.58
2023-02-11T04:39:10.042Z,29.67
2023-02-11T04:41:36.846Z,30.33
2023-02-11T04:44:03.997Z,28.50
2023-02-11T04:46:31.165Z,30.50
2023-02-11T04:48:58.086Z,31.15
2023-02-11T04:51:24.766Z,29.73
2023-02-11T04:53:51.443Z,30.10
2023-02-11T04:56:18.106Z,29.95
2023-02-11T04:58:44.759Z,30.58
2023-02-11T05:01:14.370Z,29.45
2023-02-11T05:03:41.766Z,28.50
2023-02-11T05:06:10.403Z,27.23
2023-02-11T05:08:37.433Z,27.77
2023-02-11T05:11:04.624Z,27.55
2023-02-11T05:13:32.095Z,26.88
2023-02-11T05:15:58.897Z,26.48
2023-02-11T05:18:25.673Z,27.60
2023-02-11T05:20:52.359Z,26.90
2023-02-11T05:23:19.016Z,28.52
2023-02-11T05:25:45.681Z,29.50
2023-02-11T05:28:12.467Z,28.67
2023-02-11T05:30:39.368Z,28.45
2023-02-11T05:33:06.749Z,29.33
2023-02-11T05:35:33.388Z,28.40
2023-02-11T05:38:00.083Z,27.85
2023-02-11T05:40:26.863Z,28.25
2023-02-11T05:42:53.512Z,29.85
2023-02-11T05:45:20.172Z,28.63
2023-02-11T05:47:46.883Z,28.40
2023-02-11T05:50:13.477Z,29.15
2023-02-11T05:52:40.155Z,27.40
2023-02-11T05:55:07.119Z,28.88
2023-02-11T05:57:34.466Z,28.33
2023-02-11T06:00:01.334Z,29.08
2023-02-11T06:02:28.278Z,29.60
2023-02-11T06:04:54.987Z,30.23
2023-02-11T06:07:21.650Z,30.70
2023-02-11T06:09:48.386Z,29.80
2023-02-11T06:12:15.170Z,32.47
2023-02-11T06:14:42.156Z,32.42
2023-02-11T06:17:08.982Z,32.88
2023-02-11T06:19:35.690Z,31.70
2023-02-11T06:22:02.534Z,30.90
2023-02-11T06:24:54.696Z,31.52
2023-02-11T06:27:16.137Z,32.55
2023-02-11T06:29:42.910Z,31.45
2023-02-11T06:32:23.311Z,32.42
2023-02-11T06:34:56.245Z,32.13
2023-02-11T06:37:23.024Z,31.75
2023-02-11T06:39:49.777Z,33.28
2023-02-11T06:42:16.731Z,32.83
2023-02-11T06:44:43.539Z,32.75
2023-02-11T06:47:10.326Z,33.35
2023-02-11T06:49:36.930Z,31.90
2023-02-11T06:52:04.339Z,31.40
2023-02-11T06:54:31.125Z,31.25
2023-02-11T06:56:57.932Z,31.83
2023-02-11T06:59:24.935Z,29.42
2023-02-11T07:01:51.730Z,30.50
2023-02-11T07:04:19.611Z,29.33
2023-02-11T07:06:46.253Z,28.30
2023-02-11T07:09:12.990Z,28.50
2023-02-11T07:11:39.792Z,28.45
2023-02-11T07:14:08.825Z,28.92
2023-02-11T07:16:36.109Z,28.67
2023-02-11T07:19:02.953Z,30.70
2023-02-11T07:21:29.826Z,30.52
2023-02-11T07:23:56.618Z,30.40
2023-02-11T07:26:24.426Z,31.52
2023-02-11T07:28:52.022Z,31.42
2023-02-11T07:31:25.011Z,32.78
2023-02-11T07:33:53.577Z,31.17
2023-02-11T07:36:20.604Z,31.27
2023-02-11T07:38:47.675Z,31.48
2023-02-11T07:41:17.045Z,32.63
2023-02-11T07:43:44.506Z,31.05
2023-02-11T07:46:24.109Z,28.48
2023-02-11T07:48:51.085Z,29.70
2023-02-11T07:51:20.777Z,31.55
2023-02-11T07:53:48.066Z,31.27
2023-02-11T07:56:16.026Z,29.48
2023-02-11T07:58:43.348Z,31.05
2023-02-11T08:01:18.882Z,29.90
2023-02-11T08:03:45.708Z,29.90
2023-02-11T08:06:15.104Z,30.13
2023-02-11T08:08:42.102Z,30.40
2023-02-11T08:11:15.987Z,29.90
2023-02-11T08:13:43.122Z,30.75
2023-02-11T08:16:10.753Z,29.63
2023-02-11T08:18:40.365Z,30.98
2023-02-11T08:21:09.141Z,30.77
2023-02-11T08:23:40.381Z,29.52
2023-02-11T08:26:10.657Z,29.90
2023-02-11T08:28:38.889Z,29.33
2023-02-11T08:31:10.759Z,29.83
2023-02-11T08:33:37.792Z,30.40
2023-02-11T08:36:19.085Z,29.48
2023-02-11T08:38:46.123Z,29.33
2023-02-11T08:41:15.110Z,27.90
2023-02-11T08:43:45.034Z,29.35
2023-02-11T08:46:17.491Z,28.50
2023-02-11T08:48:45.325Z,28.77
2023-02-11T08:51:16.604Z,28.60
2023-02-11T08:53:43.438Z,29.27
2023-02-11T08:56:13.485Z,28.77
2023-02-11T08:58:41.471Z,29.08
2023-02-11T09:01:13.597Z,27.60
2023-02-11T09:03:40.558Z,27.63
2023-02-11T09:06:09.178Z,27.77
2023-02-11T09:08:41.384Z,28.48
2023-02-11T09:11:09.260Z,28.48
2023-02-11T09:13:36.551Z,27.83
2023-02-11T09:16:05.392Z,27.65
2023-02-11T09:18:32.773Z,29.60
2023-02-11T09:21:07.733Z,31.00
2023-02-11T09:23:34.782Z,31.33
2023-02-11T09:26:09.109Z,32.28
2023-02-11T09:28:36.279Z,30.88
2023-02-11T09:31:11.796Z,30.10
2023-02-11T09:33:39.663Z,30.33
2023-02-11T09:36:07.091Z,28.75
2023-02-11T09:38:33.880Z,28.55
2023-02-11T09:41:04.195Z,28.10
2023-02-11T09:43:43.429Z,28.77
2023-02-11T09:46:14.280Z,28.80
2023-02-11T09:48:43.574Z,28.85
2023-02-11T09:51:36.736Z,28.65
2023-02-11T09:54:08.151Z,28.55
2023-02-11T09:56:34.988Z,28.15
2023-02-11T09:59:01.797Z,28.20
2023-02-11T10:01:36.422Z,29.63
2023-02-11T10:04:25.773Z,27.80
2023-02-11T10:06:54.793Z,28.30
2023-02-11T10:09:59.192Z,28.80
2023-02-11T10:12:44.674Z,28.90
2023-02-11T10:15:40.313Z,27.85
2023-02-11T10:19:07.624Z,28.17
2023-02-11T10:21:50.825Z,28.58
2023-02-11T10:24:18.194Z,29.77
2023-02-11T10:26:46.257Z,29.00
2023-02-11T10:29:53.686Z,28.15
2023-02-11T10:32:51.354Z,27.27
2023-02-11T10:35:22.160Z,26.92
2023-02-11T10:37:49.650Z,26.02
2023-02-11T10:40:19.200Z,27.83
2023-02-11T10:42:49.792Z,27.83
2023-02-11T10:45:31.167Z,28.45
2023-02-11T10:47:59.805Z,28.45
2023-02-11T10:50:30.095Z,28.83
2023-02-11T10:53:20.784Z,25.80
2023-02-11T10:55:55.588Z,26.67
2023-02-11T10:58:28.636Z,26.52
2023-02-11T11:00:57.364Z,26.07
2023-02-11T11:03:26.334Z,26.40
2023-02-11T11:05:59.859Z,26.30
2023-02-11T11:08:50.534Z,26.27
2023-02-11T11:11:25.602Z,26.58
2023-02-11T11:13:59.298Z,26.30
2023-02-11T11:16:29.163Z,26.58
2023-02-11T11:19:25.570Z,26.30
2023-02-11T11:21:54.751Z,26.20
2023-02-11T11:24:32.142Z,26.02
2023-02-11T11:27:01.650Z,25.95
2023-02-11T11:29:40.554Z,26.30
2023-02-11T11:32:18.901Z,25.38
2023-02-11T11:34:55.956Z,24.98
2023-02-11T11:37:30.818Z,25.80
2023-02-11T11:40:30.794Z,24.80
2023-02-11T11:43:21.318Z,24.13
2023-02-11T11:45:58.156Z,24.52
2023-02-11T11:48:39.497Z,24.88
2023-02-11T11:51:09.345Z,24.70
2023-02-11T11:53:42.796Z,24.48
2023-02-11T11:56:22.787Z,24.13
2023-02-11T11:58:50.457Z,24.08
2023-02-11T12:01:35.126Z,23.35
2023-02-11T12:04:24.199Z,24.92
2023-02-11T12:07:24.788Z,23.17
2023-02-11T12:09:52.410Z,24.17
2023-02-11T12:12:47.508Z,24.77
2023-02-11T12:15:37.264Z,23.70
2023-02-11T12:18:33.527Z,23.58
2023-02-11T12:21:04.775Z,23.17
2023-02-11T12:23:44.496Z,23.42
2023-02-11T12:26:18.226Z,22.38
2023-02-11T12:28:57.044Z,23.05
2023-02-11T12:32:05.933Z,24.65
2023-02-11T12:35:09.711Z,23.63
2023-02-11T12:38:08.635Z,23.60
2023-02-11T12:41:15.817Z,23.55
2023-02-11T12:43:45.423Z,23.75
2023-02-11T12:46:45.584Z,23.75
2023-02-11T12:49:34.844Z,22.85
2023-02-11T12:52:30.827Z,22.23
2023-02-11T12:55:23.886Z,23.13
2023-02-11T12:57:51.852Z,24.25
2023-02-11T13:00:25.090Z,25.85
2023-02-11T13:03:23.693Z,26.52
2023-02-11T13:05:58.010Z,24.55
2023-02-11T13:11:15.209Z,22.70
2023-02-11T13:14:22.490Z,23.75
2023-02-11T13:16:50.539Z,23.50
2023-02-11T13:19:39.500Z,23.73
2023-02-11T13:22:39.143Z,24.77
2023-02-11T13:25:31.150Z,25.85
2023-02-11T13:28:04.499Z,23.88
2023-02-11T13:30:35.272Z,23.20
2023-02-11T13:33:03.894Z,25.17
2023-02-11T13:35:32.180Z,23.60
2023-02-11T13:38:04.573Z,22.92
2023-02-11T13:40:39.590Z,21.58
2023-02-11T13:43:12.195Z,23.73
2023-02-11T13:45:46.055Z,25.95
2023-02-11T13:48:22.474Z,26.90
2023-02-11T13:50:51.632Z,26.08
2023-02-11T13:53:19.306Z,23.70
2023-02-11T13:55:47.751Z,23.13
2023-02-11T13:58:37.382Z,22.98
2023-02-11T14:01:04.222Z,20.25
2023-02-11T14:03:52.525Z,20.73
2023-02-11T14:07:05.901Z,21.23
2023-02-11T14:09:35.893Z,20.48
2023-02-11T14:12:33.270Z,19.63
2023-02-11T14:15:21.386Z,20.30
2023-02-11T14:17:48.619Z,20.23
2023-02-11T14:20:37.302Z,19.40
2023-02-11T14:23:05.193Z,20.35
2023-02-11T14:25:32.322Z,20.98
2023-02-11T14:28:16.937Z,19.50
2023-02-11T14:31:02.686Z,20.50
2023-02-11T14:33:44.836Z,21.60
2023-02-11T14:36:44.124Z,22.35
2023-02-11T14:39:29.357Z,20.35
2023-02-11T14:41:56.392Z,20.98
2023-02-11T14:44:28.591Z,20.63
2023-02-11T14:46:56.435Z,20.65
2023-02-11T14:49:37.145Z,20.90
2023-02-11T14:52:34.614Z,20.80
2023-02-11T14:55:35.009Z,18.95
2023-02-11T14:58:17.134Z,20.35
2023-02-11T15:00:58.426Z,20.30
2023-02-11T15:03:40.408Z,20.88
2023-02-11T15:06:22.053Z,21.73
2023-02-11T15:08:52.320Z,21.30
2023-02-11T15:11:21.979Z,21.08
2023-02-11T15:13:50.106Z,21.20
2023-02-11T15:16:23.876Z,20.85
2023-02-11T15:18:56.550Z,21.25
2023-02-11T15:21:30.065Z,22.02
2023-02-11T15:24:00.019Z,21.77
2023-02-11T15:26:26.892Z,21.48
2023-02-11T15:28:53.640Z,21.83
2023-02-11T15:31:25.831Z,21.60
2023-02-11T15:33:53.168Z,21.15
2023-02-11T15:36:24.219Z,24.13
2023-02-11T15:39:16.604Z,21.67
2023-02-11T15:41:45.013Z,24.40
2023-02-11T15:44:32.555Z,25.35
2023-02-11T15:46:59.687Z,22.33
2023-02-11T15:49:26.955Z,21.83
2023-02-11T15:51:55.774Z,21.85
2023-02-11T15:54:27.970Z,22.00
2023-02-11T15:57:00.218Z,21.75
2023-02-11T15:59:33.458Z,20.58
2023-02-11T16:02:18.058Z,22.25
2023-02-11T16:07:50.960Z,22.35
2023-02-11T16:10:37.968Z,20.67
2023-02-11T16:13:24.076Z,21.63
2023-02-11T16:16:05.163Z,21.75
2023-02-11T16:18:40.346Z,21.83
2023-02-11T16:21:17.772Z,21.05
2023-02-11T16:23:51.627Z,21.83
2023-02-11T16:26:33.662Z,21.48
2023-02-11T16:29:18.786Z,21.65
2023-02-11T16:31:47.512Z,22.27
2023-02-11T16:34:20.097Z,21.55
2023-02-11T16:36:47.905Z,22.55
2023-02-11T16:39:15.039Z,22.33
2023-02-11T16:41:41.948Z,22.63
2023-02-11T16:44:09.168Z,23.13
2023-02-11T16:46:37.264Z,23.45
2023-02-11T16:49:12.836Z,22.50
2023-02-11T16:51:41.260Z,23.80
2023-02-11T16:54:12.610Z,23.45
2023-02-11T16:56:39.447Z,24.92
2023-02-11T16:59:06.321Z,25.27
2023-02-11T17:01:33.417Z,24.60
2023-02-11T17:04:00.247Z,25.08
2023-02-11T17:06:28.270Z,25.63
2023-02-11T17:08:55.077Z,24.05
2023-02-11T17:11:22.121Z,25.83
2023-02-11T17:13:48.893Z,24.10
2023-02-11T17:16:18.584Z,25.35
2023-02-11T17:18:45.683Z,25.17
2023-02-11T17:21:12.672Z,26.55
2023-02-11T17:23:39.768Z,28.08
2023-02-11T17:26:10.937Z,27.55
2023-02-11T17:28:37.680Z,28.00
2023-02-11T17:31:08.520Z,26.77
2023-02-11T17:33:36.284Z,27.70
2023-02-11T17:36:10.211Z,25.20
2023-02-11T17:38:37.466Z,24.80
2023-02-11T17:41:05.232Z,22.98
2023-02-11T17:43:32.380Z,24.45
2023-02-11T17:45:59.173Z,23.55
2023-02-11T17:48:25.989Z,24.88
2023-02-11T17:50:52.656Z,25.67
2023-02-11T17:53:19.339Z,25.77
2023-02-11T17:55:46.252Z,25.92
2023-02-11T17:58:13.049Z,29.17
2023-02-11T18:00:39.930Z,29.55
2023-02-11T18:03:06.832Z,31.52
2023-02-11T18:05:35.428Z,29.27
2023-02-11T18:08:02.907Z,29.67
2023-02-11T18:10:29.863Z,27.63
2023-02-11T18:13:01.330Z,26.90
2023-02-11T18:15:28.042Z,27.60
2023-02-11T18:17:55.928Z,25.40
2023-02-11T18:20:22.730Z,25.42
2023-02-11T18:22:49.548Z,25.67
2023-02-11T18:25:16.598Z,25.95
2023-02-11T18:27:43.487Z,26.63
2023-02-11T18:30:18.508Z,27.08
2023-02-11T18:32:45.715Z,27.17
2023-02-11T18:35:15.254Z,27.55
2023-02-11T18:37:43.108Z,31.80
2023-02-11T18:40:11.320Z,30.83
2023-02-11T18:42:38.921Z,32.17
2023-02-11T18:45:11.725Z,32.28
2023-02-11T18:47:39.045Z,29.15
2023-02-11T18:50:07.738Z,28.73
2023-02-11T18:52:37.095Z,27.95
2023-02-11T18:55:08.273Z,27.35
2023-02-11T18:57:35.056Z,27.30
2023-02-11T19:00:01.773Z,27.27
2023-02-11T19:02:29.527Z,28.83
2023-02-11T19:04:56.249Z,28.65
2023-02-11T19:07:22.864Z,28.63
2023-02-11T19:09:49.813Z,27.60
2023-02-11T19:12:16.542Z,28.35
2023-02-11T19:14:43.211Z,27.70
2023-02-11T19:17:12.318Z,27.83
2023-02-11T19:19:39.037Z,26.65
2023-02-11T19:22:10.522Z,28.80
2023-02-11T19:24:37.763Z,31.08
2023-02-11T19:27:05.495Z,31.45
2023-02-11T19:29:35.507Z,32.47
2023-02-11T19:32:06.457Z,31.27
2023-02-11T19:34:33.357Z,30.58
2023-02-11T19:37:01.840Z,30.67
2023-02-11T19:39:28.644Z,33.20
2023-02-11T19:41:55.556Z,31.23
2023-02-11T19:44:22.497Z,31.05
2023-02-11T19:46:50.403Z,31.70
2023-02-11T19:49:23.253Z,30.25
2023-02-11T19:51:51.098Z,29.25
2023-02-11T19:54:17.787Z,26.60
2023-02-11T19:56:45.099Z,26.70
2023-02-11T19:59:12.294Z,25.65
2023-02-11T20:01:39.255Z,24.90
2023-02-11T20:04:06.655Z,26.25
2023-02-11T20:06:35.423Z,25.55
2023-02-11T20:09:07.805Z,26.02
2023-02-11T20:11:35.089Z,26.20
2023-02-11T20:14:02.545Z,27.40
2023-02-11T20:16:46.869Z,26.08
2023-02-11T20:19:18.492Z,26.83
2023-02-11T20:21:47.566Z,27.45
2023-02-11T20:24:15.364Z,26.95
2023-02-11T20:26:42.674Z,30.25
2023-02-11T20:29:09.854Z,32.28
2023-02-11T20:31:37.000Z,32.85
2023-02-11T20:34:04.217Z,32.20
2023-02-11T20:36:35.888Z,28.45
2023-02-11T20:39:05.088Z,28.33
2023-02-11T20:41:34.526Z,27.80
2023-02-11T20:44:04.304Z,29.10
2023-02-11T20:46:33.204Z,29.80
2023-02-11T20:49:00.643Z,26.50
2023-02-11T20:51:30.055Z,25.42
2023-02-11T20:53:57.055Z,26.08
2023-02-11T20:56:26.217Z,26.75
2023-02-11T20:58:56.941Z,28.00
2023-02-11T21:01:32.667Z,29.17
2023-02-11T21:04:02.584Z,29.23
2023-02-11T21:06:36.269Z,28.13
2023-02-11T21:09:04.765Z,28.88
2023-02-11T21:11:31.614Z,27.75
2023-02-11T21:13:58.589Z,29.08
2023-02-11T21:16:25.513Z,29.13
2023-02-11T21:18:52.561Z,30.40
2023-02-11T21:21:19.877Z,31.73
2023-02-11T21:23:47.275Z,31.58
2023-02-11T21:26:15.106Z,31.23
2023-02-11T21:28:41.903Z,30.33
2023-02-11T21:31:09.283Z,30.42
2023-02-11T21:33:36.211Z,32.67
2023-02-11T21:36:04.729Z,29.63
2023-02-11T21:38:31.406Z,29.95
2023-02-11T21:41:04.205Z,30.80
2023-02-11T21:43:31.294Z,32.40
2023-02-11T21:45:57.997Z,33.05
2023-02-11T21:48:25.902Z,33.55
2023-02-11T21:50:53.174Z,31.38
2023-02-11T21:53:20.495Z,31.08
2023-02-11T21:55:47.243Z,29.55
2023-02-11T21:58:14.474Z,31.75
2023-02-11T22:00:41.292Z,30.02
2023-02-11T22:03:08.132Z,31.13
2023-02-11T22:05:34.782Z,29.75
2023-02-11T22:08:01.465Z,27.85
2023-02-11T22:10:28.219Z,29.05
2023-02-11T22:12:54.864Z,29.02
2023-02-11T22:15:21.507Z,27.08
2023-02-11T22:17:48.199Z,26.48
2023-02-11T22:20:16.329Z,25.65
2023-02-11T22:22:42.963Z,24.70
2023-02-11T22:25:09.846Z,24.90
2023-02-11T22:27:36.699Z,24.67
2023-02-11T22:30:03.921Z,27.45
2023-02-11T22:32:30.651Z,27.30
2023-02-11T22:34:57.635Z,29.42
2023-02-11T22:37:24.375Z,30.05
2023-02-11T22:39:50.999Z,32.03
2023-02-11T22:42:17.831Z,35.03
2023-02-11T22:44:44.637Z,33.65
2023-02-11T22:47:11.341Z,31.27
2023-02-11T22:49:39.750Z,30.52
2023-02-11T22:52:06.480Z,31.02
2023-02-11T22:54:33.118Z,30.52
2023-02-11T22:56:59.743Z,29.83
2023-02-11T22:59:26.331Z,30.10
2023-02-11T23:01:53.234Z,29.77
2023-02-11T23:04:21.274Z,29.75
2023-02-11T23:06:48.044Z,30.75
2023-02-11T23:09:15.155Z,30.15
2023-02-11T23:11:42.021Z,29.77
2023-02-11T23:14:10.418Z,31.30
2023-02-11T23:16:37.202Z,30.23
2023-02-11T23:19:07.151Z,30.23
2023-02-11T23:21:35.670Z,30.70
2023-02-11T23:24:06.089Z,30.25
2023-02-11T23:26:32.842Z,31.10
2023-02-11T23:29:00.670Z,30.67
2023-02-11T23:31:34.307Z,30.92
2023-02-11T23:34:01.562Z,31.02
2023-02-11T23:36:28.444Z,30.30
2023-02-11T23:38:55.108Z,29.52
2023-02-11T23:41:22.181Z,30.52
2023-02-11T23:43:59.012Z,29.48
2023-02-11T23:46:26.759Z,29.25
2023-02-11T23:48:53.751Z,28.58
2023-02-11T23:51:20.693Z,28.65
2023-02-11T23:53:49.388Z,28.02
2023-02-11T23:56:21.803Z,27.92
2023-02-11T23:58:49.794Z,28.52
